createdAt,value
2022-12-08T00:01:20.564Z,100588.34
2022-12-08T00:03:47.514Z,100598.44
2022-12-08T00:06:49.044Z,100598.91
2022-12-08T00:09:41.943Z,100589.28
2022-12-08T00:12:17.621Z,100599.84
2022-12-08T00:14:47.628Z,100584.59
2022-12-08T00:17:16.330Z,100562.31
2022-12-08T00:19:44.188Z,100577.31
2022-12-08T00:22:12.912Z,100560.66
2022-12-08T00:24:40.864Z,100573.78
2022-12-08T00:27:09.813Z,100571.34
2022-12-08T00:29:36.645Z,100563.97
2022-12-08T00:32:03.846Z,100550.09
2022-12-08T00:34:31.913Z,100561.13
2022-12-08T00:36:58.718Z,100563.94
2022-12-08T00:39:25.418Z,100549.03
2022-12-08T00:42:10.946Z,100539.66
2022-12-08T00:44:37.658Z,100541.31
2022-12-08T00:47:04.907Z,100545.19
2022-12-08T00:49:31.599Z,100555.50
2022-12-08T00:51:58.371Z,100533.78
2022-12-08T00:54:25.253Z,100550.91
2022-12-08T00:56:52.085Z,100526.03
2022-12-08T00:59:19.177Z,100505.31
2022-12-08T01:01:46.818Z,100548.81
2022-12-08T01:04:16.160Z,100546.31
2022-12-08T01:06:45.816Z,100485.25
2022-12-08T01:09:14.620Z,100538.03
2022-12-08T01:11:41.565Z,100497.78
2022-12-08T01:14:08.286Z,100516.91
2022-12-08T01:16:37.241Z,100528.41
2022-12-08T01:19:04.859Z,100512.34
2022-12-08T01:21:31.733Z,100517.03
2022-12-08T01:24:00.189Z,100521.13
2022-12-08T01:26:27.141Z,100524.41
2022-12-08T01:28:54.079Z,100521.38
2022-12-08T01:31:22.184Z,100525.56
2022-12-08T01:33:49.759Z,100512.81
2022-12-08T01:36:28.149Z,100516.78
2022-12-08T01:38:57.923Z,100533.09
2022-12-08T01:41:27.906Z,100529.91
2022-12-08T01:44:02.023Z,100536.34
2022-12-08T01:46:31.524Z,100507.28
2022-12-08T01:49:05.552Z,100516.56
2022-12-08T01:51:38.892Z,100533.34
2022-12-08T01:54:07.358Z,100540.72
2022-12-08T01:56:54.159Z,100517.97
2022-12-08T01:59:21.397Z,100501.34
2022-12-08T02:01:48.185Z,100513.53
2022-12-08T02:04:14.926Z,100521.25
2022-12-08T02:06:44.959Z,100513.53
2022-12-08T02:09:13.398Z,100488.31
2022-12-08T02:11:40.114Z,100507.66
2022-12-08T02:14:12.254Z,100515.84
2022-12-08T02:17:20.123Z,100519.50
2022-12-08T02:20:01.993Z,100516.81
2022-12-08T02:22:44.157Z,100507.91
2022-12-08T02:25:45.045Z,100507.06
2022-12-08T02:28:45.325Z,100490.75
2022-12-08T02:31:33.251Z,100500.34
2022-12-08T02:34:09.178Z,100494.00
2022-12-08T02:36:41.894Z,100495.19
2022-12-08T02:39:29.384Z,100470.78
2022-12-08T02:42:20.553Z,100480.47
2022-12-08T02:44:59.656Z,100457.38
2022-12-08T02:47:28.400Z,100458.31
2022-12-08T02:49:56.656Z,100459.72
2022-12-08T02:52:23.245Z,100465.63
2022-12-08T02:55:07.122Z,100449.59
2022-12-08T02:57:45.659Z,100457.78
2022-12-08T03:00:18.831Z,100453.31
2022-12-08T03:03:06.848Z,100457.53
2022-12-08T03:06:01.564Z,100436.50
2022-12-08T03:08:51.396Z,100460.78
2022-12-08T03:11:47.140Z,100447.47
2022-12-08T03:14:18.057Z,100434.94
2022-12-08T03:16:48.947Z,100434.81
2022-12-08T03:19:23.661Z,100425.44
2022-12-08T03:21:53.171Z,100424.63
2022-12-08T03:24:23.302Z,100398.31
2022-12-08T03:27:02.678Z,100427.69
2022-12-08T03:29:32.947Z,100404.38
2022-12-08T03:32:35.102Z,100420.63
2022-12-08T03:35:07.133Z,100402.91
2022-12-08T03:37:36.849Z,100343.25
2022-12-08T03:40:06.174Z,100388.06
2022-12-08T03:42:33.070Z,100387.53
2022-12-08T03:44:59.895Z,100394.09
2022-12-08T03:47:26.623Z,100382.91
2022-12-08T03:49:54.300Z,100379.59
2022-12-08T03:52:21.143Z,100396.53
2022-12-08T03:54:48.357Z,100400.28
2022-12-08T03:57:15.023Z,100347.59
2022-12-08T03:59:41.809Z,100371.00
2022-12-08T04:02:08.485Z,100348.50
2022-12-08T04:04:35.211Z,100379.75
2022-12-08T04:07:01.968Z,100345.34
2022-12-08T04:09:28.601Z,100330.47
2022-12-08T04:11:55.327Z,100368.41
2022-12-08T04:14:25.932Z,100363.63
2022-12-08T04:16:52.640Z,100363.72
2022-12-08T04:19:19.869Z,100363.25
2022-12-08T04:21:46.611Z,100362.41
2022-12-08T04:24:13.255Z,100343.06
2022-12-08T04:26:39.887Z,100351.13
2022-12-08T04:29:06.629Z,100351.00
2022-12-08T04:31:33.380Z,100358.69
2022-12-08T04:34:00.177Z,100359.59
2022-12-08T04:36:26.976Z,100365.66
2022-12-08T04:38:54.102Z,100342.75
2022-12-08T04:41:21.207Z,100358.72
2022-12-08T04:43:48.023Z,100336.34
2022-12-08T04:46:14.700Z,100308.28
2022-12-08T04:48:41.634Z,100327.28
2022-12-08T04:51:21.662Z,100334.88
2022-12-08T04:53:48.466Z,100331.91
2022-12-08T04:56:18.047Z,100333.69
2022-12-08T04:58:45.772Z,100327.69
2022-12-08T05:01:13.444Z,100329.47
2022-12-08T05:03:40.159Z,100327.69
2022-12-08T05:06:07.562Z,100313.16
2022-12-08T05:08:35.112Z,100322.00
2022-12-08T05:11:04.325Z,100317.50
2022-12-08T05:13:31.589Z,100335.06
2022-12-08T05:16:10.704Z,100326.75
2022-12-08T05:18:37.986Z,100318.31
2022-12-08T05:21:07.001Z,100325.13
2022-12-08T05:23:34.367Z,100329.91
2022-12-08T05:26:01.578Z,100314.22
2022-12-08T05:28:44.286Z,100318.56
2022-12-08T05:31:13.234Z,100324.16
2022-12-08T05:33:40.678Z,100328.94
2022-12-08T05:36:08.536Z,100337.00
2022-12-08T05:38:35.583Z,100336.44
2022-12-08T05:41:02.730Z,100327.31
2022-12-08T05:43:29.544Z,100313.56
2022-12-08T05:45:56.626Z,100311.38
2022-12-08T05:48:23.355Z,100317.94
2022-12-08T05:50:51.225Z,100327.56
2022-12-08T05:53:20.331Z,100321.75
2022-12-08T05:55:47.936Z,100311.94
2022-12-08T05:58:19.907Z,100321.06
2022-12-08T06:00:47.727Z,100313.97
2022-12-08T06:03:16.444Z,100296.34
2022-12-08T06:05:45.021Z,100317.63
2022-12-08T06:08:12.580Z,100313.78
2022-12-08T06:10:44.316Z,100315.41
2022-12-08T06:13:11.472Z,100319.81
2022-12-08T06:15:39.353Z,100317.50
2022-12-08T06:18:06.923Z,100309.06
2022-12-08T06:20:35.054Z,100316.28
2022-12-08T06:23:02.207Z,100305.66
2022-12-08T06:25:29.044Z,100306.50
2022-12-08T06:27:55.768Z,100292.88
2022-12-08T06:30:22.559Z,100294.34
2022-12-08T06:32:51.670Z,100286.03
2022-12-08T06:35:18.405Z,100295.34
2022-12-08T06:37:45.056Z,100299.69
2022-12-08T06:40:12.191Z,100310.34
2022-12-08T06:42:45.216Z,100299.69
2022-12-08T06:45:13.996Z,100305.44
2022-12-08T06:47:40.861Z,100301.31
2022-12-08T06:50:09.083Z,100296.53
2022-12-08T06:52:40.845Z,100309.22
2022-12-08T06:55:29.127Z,100308.16
2022-12-08T06:57:59.526Z,100308.81
2022-12-08T07:00:26.237Z,100310.75
2022-12-08T07:02:52.937Z,100319.31
2022-12-08T07:05:19.860Z,100302.00
2022-12-08T07:07:46.718Z,100289.59
2022-12-08T07:10:13.372Z,100326.53
2022-12-08T07:12:39.999Z,100310.28
2022-12-08T07:15:07.446Z,100310.19
2022-12-08T07:17:34.059Z,100320.13
2022-12-08T07:20:00.727Z,100331.69
2022-12-08T07:22:27.489Z,100314.63
2022-12-08T07:24:54.146Z,100304.28
2022-12-08T07:27:20.754Z,100324.31
2022-12-08T07:29:47.511Z,100326.63
2022-12-08T07:32:15.761Z,100328.69
2022-12-08T07:35:00.168Z,100311.50
2022-12-08T07:37:26.808Z,100238.47
2022-12-08T07:39:53.523Z,100333.78
2022-12-08T07:42:20.132Z,100316.88
2022-12-08T07:44:46.744Z,100325.47
2022-12-08T07:47:13.410Z,100272.97
2022-12-08T07:49:40.048Z,100309.34
2022-12-08T07:52:06.816Z,100312.88
2022-12-08T07:54:33.585Z,100318.91
2022-12-08T07:57:00.271Z,100315.09
2022-12-08T07:59:26.901Z,100309.59
2022-12-08T08:02:21.035Z,100300.78
2022-12-08T08:04:40.381Z,100333.88
2022-12-08T08:07:07.121Z,100324.19
2022-12-08T08:09:34.364Z,100302.66
2022-12-08T08:12:29.639Z,100323.13
2022-12-08T08:14:47.728Z,100326.91
2022-12-08T08:17:14.453Z,100331.53
2022-12-08T08:19:41.155Z,100331.69
2022-12-08T08:22:07.898Z,100321.47
2022-12-08T08:24:34.726Z,100348.84
2022-12-08T08:27:01.358Z,100338.50
2022-12-08T08:29:28.090Z,100327.44
2022-12-08T08:31:54.898Z,100333.69
2022-12-08T08:34:21.512Z,100339.56
2022-12-08T08:36:48.325Z,100349.94
2022-12-08T08:39:15.963Z,100360.84
2022-12-08T08:41:42.684Z,100343.13
2022-12-08T08:44:09.387Z,100339.59
2022-12-08T08:46:36.222Z,100332.88
2022-12-08T08:49:02.993Z,100347.03
2022-12-08T08:51:29.840Z,100351.41
2022-12-08T08:53:57.250Z,100316.25
2022-12-08T08:56:24.314Z,100337.41
2022-12-08T08:58:52.855Z,100347.03
2022-12-08T09:01:22.226Z,100362.88
2022-12-08T09:03:49.468Z,100354.16
2022-12-08T09:06:17.175Z,100344.63
2022-12-08T09:08:44.297Z,100362.63
2022-12-08T09:11:12.167Z,100371.22
2022-12-08T09:13:41.078Z,100255.03
2022-12-08T09:16:09.158Z,100305.06
2022-12-08T09:18:35.943Z,100288.13
2022-12-08T09:21:08.334Z,100259.78
2022-12-08T09:23:36.034Z,100369.69
2022-12-08T09:26:05.122Z,100344.59
2022-12-08T09:28:33.097Z,100374.47
2022-12-08T09:31:00.277Z,100371.34
2022-12-08T09:33:27.168Z,100360.31
2022-12-08T09:35:53.994Z,100360.72
2022-12-08T09:38:20.599Z,100361.25
2022-12-08T09:40:53.045Z,100356.88
2022-12-08T09:43:42.692Z,100367.41
2022-12-08T09:46:11.594Z,100377.75
2022-12-08T09:48:44.577Z,100379.53
2022-12-08T09:51:13.684Z,100371.06
2022-12-08T09:53:49.219Z,100360.06
2022-12-08T09:56:19.705Z,100376.00
2022-12-08T09:59:24.586Z,100377.78
2022-12-08T10:01:51.543Z,100365.09
2022-12-08T10:04:23.323Z,100371.00
2022-12-08T10:06:59.995Z,100375.38
2022-12-08T10:09:48.579Z,100350.41
2022-12-08T10:12:21.418Z,100373.06
2022-12-08T10:14:55.340Z,100366.66
2022-12-08T10:17:40.668Z,100355.06
2022-12-08T10:20:20.110Z,100366.38
2022-12-08T10:22:53.427Z,100346.34
2022-12-08T10:25:28.228Z,100348.03
2022-12-08T10:28:01.072Z,100298.28
2022-12-08T10:30:27.707Z,100309.88
2022-12-08T10:32:55.109Z,100347.47
2022-12-08T10:35:23.513Z,100347.34
2022-12-08T10:38:01.910Z,100343.81
2022-12-08T10:40:40.515Z,100342.44
2022-12-08T10:43:17.497Z,100343.25
2022-12-08T10:45:45.234Z,100347.22
2022-12-08T10:48:17.281Z,100343.13
2022-12-08T10:50:47.591Z,100341.75
2022-12-08T10:53:21.274Z,100328.00
2022-12-08T10:55:51.181Z,100331.16
2022-12-08T10:58:44.335Z,100325.97
2022-12-08T11:01:21.741Z,100329.53
2022-12-08T11:03:57.018Z,100326.13
2022-12-08T11:06:32.945Z,100303.19
2022-12-08T11:09:01.413Z,100318.22
2022-12-08T11:11:48.387Z,100320.28
2022-12-08T11:14:27.830Z,100315.50
2022-12-08T11:17:09.586Z,100316.03
2022-12-08T11:19:55.069Z,100306.09
2022-12-08T11:22:33.534Z,100312.63
2022-12-08T11:25:12.363Z,100321.63
2022-12-08T11:27:43.714Z,100323.78
2022-12-08T11:30:22.263Z,100322.69
2022-12-08T11:32:57.579Z,100335.34
2022-12-08T11:35:28.939Z,100316.28
2022-12-08T11:38:19.780Z,100331.81
2022-12-08T11:40:51.915Z,100302.28
2022-12-08T11:43:37.048Z,100314.00
2022-12-08T11:46:12.500Z,100328.16
2022-12-08T11:48:51.214Z,100322.28
2022-12-08T11:51:38.100Z,100316.03
2022-12-08T11:54:36.100Z,100312.47
2022-12-08T11:57:06.048Z,100309.91
2022-12-08T11:59:38.488Z,100315.09
2022-12-08T12:02:12.232Z,100317.13
2022-12-08T12:05:09.336Z,100311.00
2022-12-08T12:08:01.106Z,100294.38
2022-12-08T12:11:00.267Z,100305.16
2022-12-08T12:13:35.734Z,100309.63
2022-12-08T12:16:17.734Z,100313.75
2022-12-08T12:18:47.835Z,100311.81
2022-12-08T12:21:20.104Z,100306.50
2022-12-08T12:23:53.717Z,100318.38
2022-12-08T12:26:26.624Z,100284.84
2022-12-08T12:28:57.544Z,100303.66
2022-12-08T12:31:43.490Z,100313.06
2022-12-08T12:34:36.605Z,100306.13
2022-12-08T12:37:15.151Z,100300.13
2022-12-08T12:39:57.924Z,100305.31
2022-12-08T12:42:50.971Z,100305.81
2022-12-08T12:45:17.565Z,100307.34
2022-12-08T12:47:48.627Z,100290.03
2022-12-08T12:50:34.321Z,100298.75
2022-12-08T12:53:09.185Z,100301.06
2022-12-08T12:56:02.488Z,100303.66
2022-12-08T12:58:29.638Z,100302.97
2022-12-08T13:01:14.263Z,100309.09
2022-12-08T13:03:44.126Z,100300.13
2022-12-08T13:06:14.750Z,100291.81
2022-12-08T13:08:51.243Z,100294.41
2022-12-08T13:11:18.027Z,100290.59
2022-12-08T13:13:57.848Z,100297.00
2022-12-08T13:16:27.223Z,100302.97
2022-12-08T13:18:59.139Z,100286.50
2022-12-08T13:21:36.034Z,100293.19
2022-12-08T13:24:14.717Z,100300.41
2022-12-08T13:26:49.282Z,100294.25
2022-12-08T13:29:25.661Z,100291.13
2022-12-08T13:31:56.333Z,100291.25
2022-12-08T13:34:49.182Z,100288.81
2022-12-08T13:37:26.939Z,100292.34
2022-12-08T13:40:09.090Z,100292.22
2022-12-08T13:42:35.848Z,100294.66
2022-12-08T13:45:27.886Z,100288.94
2022-12-08T13:48:58.989Z,100297.50
2022-12-08T13:57:06.870Z,100290.84
2022-12-08T13:59:36.171Z,100292.34
2022-12-08T14:02:18.252Z,100282.25
2022-12-08T14:07:38.967Z,100297.09
2022-12-08T14:10:14.783Z,100296.16
2022-12-08T14:12:46.223Z,100294.13
2022-12-08T14:15:15.609Z,100295.75
2022-12-08T14:17:51.360Z,100271.59
2022-12-08T14:20:31.609Z,100298.72
2022-12-08T14:22:59.852Z,100295.03
2022-12-08T14:25:30.205Z,100293.81
2022-12-08T14:28:01.916Z,100282.34
2022-12-08T14:30:32.746Z,100271.19
2022-12-08T14:33:01.279Z,100270.50
2022-12-08T14:35:28.002Z,100293.91
2022-12-08T14:37:58.823Z,100293.50
2022-12-08T14:40:36.763Z,100264.47
2022-12-08T14:43:09.309Z,100289.94
2022-12-08T14:45:41.686Z,100301.63
2022-12-08T14:48:36.409Z,100306.25
2022-12-08T14:51:12.634Z,100297.81
2022-12-08T14:53:58.837Z,100299.84
2022-12-08T14:56:25.639Z,100303.50
2022-12-08T14:59:15.348Z,100304.13
2022-12-08T15:01:43.938Z,100299.75
2022-12-08T15:04:25.781Z,100303.03
2022-12-08T15:07:05.557Z,100262.00
2022-12-08T15:09:37.629Z,100265.91
2022-12-08T15:12:27.093Z,100291.69
2022-12-08T15:15:09.635Z,100304.69
2022-12-08T15:17:45.059Z,100301.38
2022-12-08T15:20:39.214Z,100309.19
2022-12-08T15:23:06.773Z,100296.34
2022-12-08T15:25:33.608Z,100302.97
2022-12-08T15:28:02.643Z,100307.22
2022-12-08T15:30:30.005Z,100302.59
2022-12-08T15:32:57.655Z,100303.72
2022-12-08T15:35:24.291Z,100309.34
2022-12-08T15:37:51.094Z,100287.75
2022-12-08T15:40:20.012Z,100287.28
2022-12-08T15:42:47.051Z,100294.56
2022-12-08T15:45:15.412Z,100316.59
2022-12-08T15:47:43.464Z,100314.28
2022-12-08T15:50:18.658Z,100320.38
2022-12-08T15:52:45.444Z,100305.53
2022-12-08T15:55:14.076Z,100320.66
2022-12-08T15:58:44.555Z,100322.78
2022-12-08T16:04:19.948Z,100311.19
2022-12-08T16:09:13.463Z,100318.19
2022-12-08T16:12:08.412Z,100310.81
2022-12-08T16:17:24.195Z,100325.56
2022-12-08T16:19:53.551Z,100335.94
2022-12-08T16:25:20.344Z,100339.06
2022-12-08T16:28:12.565Z,100337.78
2022-12-08T16:30:40.557Z,100325.69
2022-12-08T16:33:07.392Z,100324.28
2022-12-08T16:35:34.155Z,100320.06
2022-12-08T16:38:01.130Z,100336.16
2022-12-08T16:40:31.213Z,100340.03
2022-12-08T16:42:58.615Z,100307.38
2022-12-08T16:45:31.038Z,100353.09
2022-12-08T16:48:01.830Z,100343.97
2022-12-08T16:50:31.272Z,100349.69
2022-12-08T16:53:04.768Z,100346.19
2022-12-08T16:55:31.780Z,100341.63
2022-12-08T16:57:58.640Z,100341.75
2022-12-08T17:00:28.552Z,100346.88
2022-12-08T17:02:55.946Z,100336.34
2022-12-08T17:05:25.070Z,100346.41
2022-12-08T17:07:53.625Z,100345.34
2022-12-08T17:10:23.597Z,100351.66
2022-12-08T17:12:50.420Z,100361.81
2022-12-08T17:15:19.801Z,100353.97
2022-12-08T17:17:47.069Z,100343.28
2022-12-08T17:20:19.464Z,100262.34
2022-12-08T17:22:46.452Z,100309.81
2022-12-08T17:25:13.649Z,100348.81
2022-12-08T17:27:40.908Z,100366.66
2022-12-08T17:30:09.922Z,100367.25
2022-12-08T17:32:38.073Z,100363.38
2022-12-08T17:35:05.781Z,100348.41
2022-12-08T17:37:32.834Z,100328.03
2022-12-08T17:39:59.655Z,100336.72
2022-12-08T17:42:27.324Z,100345.38
2022-12-08T17:44:54.943Z,100348.78
2022-12-08T17:47:22.278Z,100351.94
2022-12-08T17:49:49.053Z,100348.06
2022-12-08T17:52:15.782Z,100349.94
2022-12-08T17:54:42.576Z,100343.72
2022-12-08T17:57:09.251Z,100340.56
2022-12-08T17:59:35.937Z,100338.44
2022-12-08T18:02:05.054Z,100321.47
2022-12-08T18:04:31.843Z,100343.81
2022-12-08T18:07:03.924Z,100345.72
2022-12-08T18:09:31.438Z,100321.84
2022-12-08T18:11:58.247Z,100338.34
2022-12-08T18:14:24.937Z,100344.91
2022-12-08T18:16:51.958Z,100326.84
2022-12-08T18:19:18.754Z,100326.50
2022-12-08T18:21:45.483Z,100319.50
2022-12-08T18:24:19.364Z,100343.81
2022-12-08T18:26:47.228Z,100336.22
2022-12-08T18:29:13.885Z,100320.84
2022-12-08T18:31:40.613Z,100322.25
2022-12-08T18:34:07.269Z,100320.63
2022-12-08T18:36:34.053Z,100314.75
2022-12-08T18:39:05.834Z,100339.22
2022-12-08T18:41:35.564Z,100313.56
2022-12-08T18:44:02.424Z,100338.03
2022-12-08T18:46:29.700Z,100341.19
2022-12-08T18:48:56.384Z,100329.38
2022-12-08T18:51:24.483Z,100351.50
2022-12-08T18:53:52.309Z,100344.00
2022-12-08T18:56:23.881Z,100352.06
2022-12-08T18:58:50.612Z,100333.81
2022-12-08T19:01:17.716Z,100320.44
2022-12-08T19:03:58.507Z,100351.72
2022-12-08T19:06:31.625Z,100348.03
2022-12-08T19:08:58.700Z,100332.72
2022-12-08T19:11:27.683Z,100338.09
2022-12-08T19:13:55.690Z,100357.53
2022-12-08T19:16:26.095Z,100366.75
2022-12-08T19:18:53.424Z,100323.13
2022-12-08T19:21:22.561Z,100246.38
2022-12-08T19:23:49.509Z,100301.13
2022-12-08T19:26:26.840Z,100328.00
2022-12-08T19:28:58.141Z,100362.19
2022-12-08T19:34:14.170Z,100359.59
2022-12-08T19:36:59.072Z,100289.75
2022-12-08T19:39:46.382Z,100344.34
2022-12-08T19:42:41.317Z,100316.28
2022-12-08T19:45:26.272Z,100324.88
2022-12-08T19:47:59.313Z,100322.41
2022-12-08T19:50:40.959Z,100299.63
2022-12-08T19:53:14.848Z,100243.34
2022-12-08T19:55:48.982Z,100316.34
2022-12-08T19:58:15.967Z,100287.31
2022-12-08T20:00:46.801Z,100309.56
2022-12-08T20:03:19.947Z,100232.81
2022-12-08T20:05:57.512Z,100289.91
2022-12-08T20:08:24.839Z,100294.94
2022-12-08T20:10:59.496Z,100278.88
2022-12-08T20:13:42.094Z,100270.00
2022-12-08T20:16:10.056Z,100282.75
2022-12-08T20:18:48.431Z,100339.50
2022-12-08T20:21:23.344Z,100257.63
2022-12-08T20:23:50.548Z,100234.69
2022-12-08T20:26:23.965Z,100352.75
2022-12-08T20:28:51.216Z,100308.63
2022-12-08T20:31:26.824Z,100296.38
2022-12-08T20:34:05.799Z,100370.56
2022-12-08T20:36:32.978Z,100333.94
2022-12-08T20:38:59.726Z,100302.06
2022-12-08T20:41:27.578Z,100374.28
2022-12-08T20:43:54.552Z,100323.13
2022-12-08T20:46:25.166Z,100304.56
2022-12-08T20:48:52.765Z,100361.75
2022-12-08T20:51:19.953Z,100378.16
2022-12-08T20:53:47.551Z,100358.00
2022-12-08T20:56:18.965Z,100365.75
2022-12-08T20:58:46.162Z,100371.34
2022-12-08T21:01:15.745Z,100367.84
2022-12-08T21:03:44.820Z,100367.72
2022-12-08T21:06:12.771Z,100366.19
2022-12-08T21:08:40.317Z,100372.88
2022-12-08T21:11:08.040Z,100368.75
2022-12-08T21:13:37.161Z,100354.03
2022-12-08T21:16:04.934Z,100372.19
2022-12-08T21:18:38.928Z,100356.59
2022-12-08T21:21:12.743Z,100363.97
2022-12-08T21:23:40.527Z,100361.75
2022-12-08T21:26:15.594Z,100362.84
2022-12-08T21:28:43.265Z,100362.84
2022-12-08T21:31:12.535Z,100368.81
2022-12-08T21:33:39.707Z,100362.13
2022-12-08T21:36:09.789Z,100372.06
2022-12-08T21:38:37.821Z,100374.94
2022-12-08T21:41:16.139Z,100383.22
2022-12-08T21:43:43.731Z,100376.78
2022-12-08T21:46:19.480Z,100362.50
2022-12-08T21:48:46.533Z,100360.63
2022-12-08T21:51:13.294Z,100378.91
2022-12-08T21:53:40.167Z,100365.28
2022-12-08T21:56:10.285Z,100373.47
2022-12-08T21:58:37.290Z,100370.78
2022-12-08T22:01:08.846Z,100356.28
2022-12-08T22:03:36.475Z,100370.47
2022-12-08T22:06:11.522Z,100357.84
2022-12-08T22:08:39.646Z,100361.28
2022-12-08T22:11:08.108Z,100348.53
2022-12-08T22:13:36.726Z,100367.38
2022-12-08T22:16:06.188Z,100360.47
2022-12-08T22:18:34.034Z,100360.69
2022-12-08T22:21:01.250Z,100356.94
2022-12-08T22:23:28.983Z,100352.59
2022-12-08T22:26:00.072Z,100367.56
2022-12-08T22:28:31.849Z,100337.72
2022-12-08T22:30:58.735Z,100359.25
2022-12-08T22:33:25.624Z,100368.84
2022-12-08T22:36:03.515Z,100361.00
2022-12-08T22:38:35.141Z,100357.34
2022-12-08T22:41:04.997Z,100351.59
2022-12-08T22:43:31.915Z,100323.13
2022-12-08T22:45:58.858Z,100351.81
2022-12-08T22:48:26.769Z,100343.63
2022-12-08T22:50:59.759Z,100362.56
2022-12-08T22:53:26.876Z,100359.06
2022-12-08T22:55:53.792Z,100362.91
2022-12-08T22:58:20.568Z,100363.75
2022-12-08T23:00:47.829Z,100358.25
2022-12-08T23:03:14.598Z,100356.50
2022-12-08T23:05:41.628Z,100358.72
2022-12-08T23:08:09.371Z,100358.25
2022-12-08T23:10:36.341Z,100351.72
2022-12-08T23:13:04.209Z,100377.59
2022-12-08T23:15:31.616Z,100371.84
2022-12-08T23:17:58.714Z,100378.16
2022-12-08T23:20:25.786Z,100372.19
2022-12-08T23:22:52.636Z,100374.06
2022-12-08T23:25:19.485Z,100370.44
2022-12-08T23:27:46.538Z,100376.41
2022-12-08T23:30:14.155Z,100379.56
2022-12-08T23:32:41.673Z,100367.94
2022-12-08T23:35:09.041Z,100378.75
2022-12-08T23:37:35.853Z,100383.78
2022-12-08T23:40:03.045Z,100366.56
2022-12-08T23:42:30.593Z,100369.03
2022-12-08T23:44:57.541Z,100369.03
2022-12-08T23:47:24.369Z,100371.16
2022-12-08T23:49:51.183Z,100361.06
2022-12-08T23:52:18.176Z,100368.59
2022-12-08T23:54:45.140Z,100377.13
2022-12-08T23:57:11.950Z,100366.91
2022-12-08T23:59:39.122Z,100381.66
